createdAt,value
2019-03-05T00:00:25.270Z,2.53
2019-03-05T00:02:55.674Z,2.55
2019-03-05T00:05:27.048Z,2.56
2019-03-05T00:07:57.558Z,2.65
2019-03-05T00:10:28.795Z,2.65
2019-03-05T00:12:59.377Z,2.69
2019-03-05T00:15:32.050Z,2.71
2019-03-05T00:18:02.442Z,2.62
2019-03-05T00:20:32.911Z,2.69
2019-03-05T00:23:03.329Z,2.69
2019-03-05T00:25:36.233Z,2.71
2019-03-05T00:28:24.894Z,2.76
2019-03-05T00:31:08.968Z,2.79
2019-03-05T00:33:57.650Z,2.82
2019-03-05T00:36:56.730Z,2.81
2019-03-05T00:39:46.619Z,2.84
2019-03-05T00:42:52.998Z,2.85
2019-03-05T00:45:41.484Z,2.92
2019-03-05T00:48:42.102Z,2.97
2019-03-05T00:51:35.175Z,3.01
2019-03-05T00:54:24.806Z,3.01
2019-03-05T00:57:02.995Z,3.03
2019-03-05T00:59:48.572Z,3.08
2019-03-05T01:02:22.133Z,3.11
2019-03-05T01:05:22.411Z,3.13
2019-03-05T01:07:52.949Z,3.16
2019-03-05T01:10:27.222Z,3.17
2019-03-05T01:12:57.745Z,3.25
2019-03-05T01:15:28.310Z,3.22
2019-03-05T01:18:00.314Z,3.27
2019-03-05T01:20:30.758Z,3.25
2019-03-05T01:23:01.142Z,3.28
2019-03-05T01:25:33.852Z,3.32
2019-03-05T01:28:04.294Z,3.26
2019-03-05T01:30:57.042Z,3.29
2019-03-05T01:33:29.011Z,3.30
2019-03-05T01:36:16.834Z,3.28
2019-03-05T01:38:51.782Z,3.28
2019-03-05T01:41:22.243Z,3.35
2019-03-05T01:43:52.675Z,3.31
2019-03-05T01:46:23.204Z,3.38
2019-03-05T01:48:53.587Z,3.37
2019-03-05T01:51:24.127Z,3.35
2019-03-05T01:53:54.568Z,3.39
2019-03-05T01:56:25.026Z,3.33
2019-03-05T01:58:55.448Z,3.38
2019-03-05T02:01:25.862Z,3.35
2019-03-05T02:03:56.326Z,3.35
2019-03-05T02:06:39.176Z,3.36
2019-03-05T02:09:09.828Z,3.39
2019-03-05T02:11:40.298Z,3.41
2019-03-05T02:14:10.803Z,3.41
2019-03-05T02:16:41.237Z,3.40
2019-03-05T02:19:34.569Z,3.44
2019-03-05T02:22:07.441Z,3.47
2019-03-05T02:25:07.809Z,3.47
2019-03-05T02:27:56.323Z,3.43
2019-03-05T02:30:41.837Z,3.46
2019-03-05T02:33:15.409Z,3.48
2019-03-05T02:35:48.985Z,3.50
2019-03-05T02:38:49.571Z,3.44
2019-03-05T02:41:37.840Z,3.49
2019-03-05T02:44:45.809Z,3.47
2019-03-05T02:47:19.453Z,3.46
2019-03-05T02:49:55.689Z,3.42
2019-03-05T02:52:34.785Z,3.43
2019-03-05T02:55:26.406Z,3.46
2019-03-05T02:57:55.800Z,3.47
2019-03-05T03:00:30.751Z,3.45
2019-03-05T03:03:02.761Z,3.44
2019-03-05T03:05:35.589Z,3.46
2019-03-05T03:08:06.083Z,3.47
2019-03-05T03:10:36.659Z,3.42
2019-03-05T03:13:07.093Z,3.41
2019-03-05T03:15:37.585Z,3.41
2019-03-05T03:18:08.106Z,3.36
2019-03-05T03:20:38.560Z,3.39
2019-03-05T03:23:09.045Z,3.39
2019-03-05T03:25:39.508Z,3.37
2019-03-05T03:28:10.088Z,3.35
2019-03-05T03:30:40.586Z,3.32
2019-03-05T03:33:10.987Z,3.34
2019-03-05T03:35:41.411Z,3.34
2019-03-05T03:38:12.042Z,3.29
2019-03-05T03:40:44.589Z,3.30
2019-03-05T03:43:14.834Z,3.28
2019-03-05T03:45:45.334Z,3.28
2019-03-05T03:48:17.708Z,3.26
2019-03-05T03:50:48.333Z,3.21
2019-03-05T03:53:18.782Z,3.27
2019-03-05T03:55:49.233Z,3.20
2019-03-05T03:58:19.813Z,3.24
2019-03-05T04:00:52.237Z,3.20
2019-03-05T04:03:22.741Z,3.21
2019-03-05T04:08:53.111Z,3.18
2019-03-05T04:11:24.454Z,3.17
2019-03-05T04:13:54.917Z,3.10
2019-03-05T04:16:28.482Z,3.09
2019-03-05T04:19:00.614Z,3.05
2019-03-05T04:21:31.026Z,3.13
2019-03-05T04:24:03.068Z,3.06
2019-03-05T04:26:33.487Z,3.00
2019-03-05T04:29:03.981Z,3.05
2019-03-05T04:31:34.532Z,3.02
2019-03-05T04:34:06.947Z,3.04
2019-03-05T04:36:41.707Z,3.04
2019-03-05T04:39:12.364Z,3.07
2019-03-05T04:41:42.783Z,2.98
2019-03-05T04:44:14.755Z,3.02
2019-03-05T04:46:46.809Z,3.06
2019-03-05T04:52:15.824Z,3.01
2019-03-05T04:54:46.279Z,2.96
2019-03-05T04:57:24.531Z,3.01
2019-03-05T04:59:55.351Z,3.15
2019-03-05T05:02:25.885Z,3.13
2019-03-05T05:04:56.358Z,3.12
2019-03-05T05:07:26.810Z,2.91
2019-03-05T05:09:57.266Z,2.84
2019-03-05T05:12:27.744Z,2.83
2019-03-05T05:14:58.167Z,2.86
2019-03-05T05:17:28.667Z,2.81
2019-03-05T05:19:59.072Z,2.88
2019-03-05T05:22:30.854Z,2.86
2019-03-05T05:25:01.309Z,2.93
2019-03-05T05:27:31.829Z,3.02
2019-03-05T05:30:02.704Z,2.91
2019-03-05T05:32:35.542Z,3.06
2019-03-05T05:35:06.464Z,3.08
2019-03-05T05:37:40.584Z,3.02
2019-03-05T05:40:29.417Z,3.14
2019-03-05T05:43:00.611Z,3.43
2019-03-05T05:45:50.783Z,3.34
2019-03-05T05:48:23.033Z,3.32
2019-03-05T05:50:56.511Z,3.31
2019-03-05T05:56:19.497Z,3.59
2019-03-05T06:01:41.870Z,3.86
2019-03-05T06:04:28.559Z,3.86
2019-03-05T06:06:59.093Z,3.85
2019-03-05T06:09:29.593Z,4.21
2019-03-05T06:12:00.162Z,4.22
2019-03-05T06:14:30.696Z,4.12
2019-03-05T06:17:01.243Z,4.30
2019-03-05T06:20:12.186Z,4.24
2019-03-05T06:22:42.654Z,4.69
2019-03-05T06:25:14.959Z,4.51
2019-03-05T06:27:45.373Z,4.53
2019-03-05T06:30:21.125Z,4.71
2019-03-05T06:32:53.543Z,4.52
2019-03-05T06:35:27.507Z,4.83
2019-03-05T06:37:58.008Z,4.54
2019-03-05T06:40:31.732Z,4.60
2019-03-05T06:43:02.171Z,4.85
2019-03-05T06:45:33.429Z,4.84
2019-03-05T06:48:08.180Z,4.74
2019-03-05T06:50:40.404Z,4.93
2019-03-05T06:53:16.236Z,4.93
2019-03-05T06:55:51.339Z,5.16
2019-03-05T06:58:21.907Z,5.14
2019-03-05T07:00:52.396Z,5.06
2019-03-05T07:03:24.520Z,5.10
2019-03-05T07:06:30.989Z,5.20
2019-03-05T07:09:05.378Z,5.60
2019-03-05T07:12:02.553Z,5.74
2019-03-05T07:15:16.067Z,5.61
2019-03-05T07:17:58.430Z,5.85
2019-03-05T07:20:51.508Z,5.95
2019-03-05T07:23:39.692Z,6.23
2019-03-05T07:26:15.637Z,6.26
2019-03-05T07:28:50.521Z,6.24
2019-03-05T07:31:28.081Z,6.33
2019-03-05T07:33:58.745Z,6.65
2019-03-05T07:36:29.317Z,6.99
2019-03-05T07:38:59.870Z,6.80
2019-03-05T07:41:30.398Z,6.95
2019-03-05T07:44:03.065Z,7.01
2019-03-05T07:46:33.505Z,7.04
2019-03-05T07:49:04.047Z,6.95
2019-03-05T07:51:34.583Z,7.21
2019-03-05T07:54:05.084Z,7.14
2019-03-05T07:56:35.632Z,7.40
2019-03-05T07:59:08.344Z,7.41
2019-03-05T08:01:38.461Z,7.37
2019-03-05T08:04:09.122Z,7.42
2019-03-05T08:06:39.654Z,7.52
2019-03-05T08:09:37.312Z,7.39
2019-03-05T08:12:27.129Z,7.58
2019-03-05T08:15:19.185Z,7.37
2019-03-05T08:17:56.795Z,7.52
2019-03-05T08:20:41.441Z,7.45
2019-03-05T08:23:25.250Z,7.55
2019-03-05T08:25:59.310Z,7.54
2019-03-05T08:31:21.569Z,7.61
2019-03-05T08:37:01.882Z,7.46
2019-03-05T08:39:33.582Z,7.67
2019-03-05T08:42:04.163Z,7.72
2019-03-05T08:44:36.421Z,7.80
2019-03-05T08:47:10.574Z,7.88
2019-03-05T08:49:42.815Z,8.05
2019-03-05T08:52:18.016Z,8.10
2019-03-05T08:54:48.461Z,8.15
2019-03-05T08:57:22.075Z,8.21
2019-03-05T08:59:52.608Z,8.45
2019-03-05T09:02:24.655Z,8.87
2019-03-05T09:04:55.073Z,8.61
2019-03-05T09:07:28.337Z,8.73
2019-03-05T09:09:58.771Z,8.87
2019-03-05T09:12:29.200Z,9.12
2019-03-05T09:14:59.601Z,9.19
2019-03-05T09:17:30.064Z,9.22
2019-03-05T09:20:00.622Z,9.20
2019-03-05T09:22:32.665Z,9.33
2019-03-05T09:25:08.115Z,9.46
2019-03-05T09:27:38.574Z,9.48
2019-03-05T09:33:20.206Z,9.51
2019-03-05T09:35:53.089Z,9.54
2019-03-05T09:38:28.239Z,9.76
2019-03-05T09:41:00.535Z,9.98
2019-03-05T09:43:32.586Z,10.09
2019-03-05T09:46:03.039Z,10.13
2019-03-05T09:48:33.541Z,10.39
2019-03-05T09:51:04.077Z,10.14
2019-03-05T09:53:34.641Z,10.34
2019-03-05T09:56:05.961Z,10.57
2019-03-05T09:58:42.596Z,10.36
2019-03-05T10:01:14.740Z,10.23
2019-03-05T10:03:45.251Z,10.35
2019-03-05T10:06:15.553Z,10.31
2019-03-05T10:08:47.573Z,10.31
2019-03-05T10:11:21.612Z,10.27
2019-03-05T10:13:52.052Z,10.37
2019-03-05T10:19:14.971Z,10.54
2019-03-05T10:21:46.533Z,10.59
2019-03-05T10:24:21.814Z,10.58
2019-03-05T10:26:52.375Z,10.62
2019-03-05T10:29:22.878Z,10.62
2019-03-05T10:31:53.343Z,10.84
2019-03-05T10:34:24.759Z,11.06
2019-03-05T10:36:56.302Z,11.44
2019-03-05T10:39:30.938Z,11.52
2019-03-05T10:42:00.438Z,11.31
2019-03-05T10:44:30.843Z,11.02
2019-03-05T10:47:02.271Z,11.13
2019-03-05T10:49:35.851Z,11.05
2019-03-05T10:52:07.985Z,11.25
2019-03-05T10:54:38.525Z,11.41
2019-03-05T10:57:08.989Z,11.31
2019-03-05T10:59:39.549Z,10.99
2019-03-05T11:02:15.197Z,11.12
2019-03-05T11:04:46.166Z,11.25
2019-03-05T11:07:16.616Z,11.22
2019-03-05T11:10:10.522Z,11.34
2019-03-05T11:12:39.180Z,11.40
2019-03-05T11:15:27.639Z,11.49
2019-03-05T11:17:58.137Z,11.20
2019-03-05T11:20:29.987Z,11.23
2019-03-05T11:23:00.526Z,11.39
2019-03-05T11:25:32.891Z,11.21
2019-03-05T11:28:03.804Z,11.21
2019-03-05T11:30:39.451Z,11.18
2019-03-05T11:33:17.028Z,11.44
2019-03-05T11:35:51.063Z,11.64
2019-03-05T11:38:30.293Z,11.30
2019-03-05T11:41:01.547Z,11.49
2019-03-05T11:43:32.742Z,11.89
2019-03-05T11:46:04.738Z,11.66
2019-03-05T11:48:35.173Z,11.43
2019-03-05T11:51:08.359Z,11.45
2019-03-05T11:53:38.891Z,11.71
2019-03-05T11:56:09.413Z,11.99
2019-03-05T11:58:40.002Z,11.88
2019-03-05T12:01:12.995Z,11.52
2019-03-05T12:03:53.934Z,11.58
2019-03-05T12:06:26.484Z,11.53
2019-03-05T12:08:57.033Z,11.69
2019-03-05T12:11:27.527Z,11.65
2019-03-05T12:13:58.018Z,11.93
2019-03-05T12:16:51.440Z,11.81
2019-03-05T12:19:17.057Z,11.79
2019-03-05T12:21:47.561Z,11.92
2019-03-05T12:24:19.897Z,11.88
2019-03-05T12:26:50.463Z,11.89
2019-03-05T12:29:21.760Z,11.83
2019-03-05T12:31:52.261Z,11.87
2019-03-05T12:34:22.703Z,12.04
2019-03-05T12:36:57.183Z,11.80
2019-03-05T12:39:27.703Z,11.90
2019-03-05T12:41:58.446Z,11.89
2019-03-05T12:44:36.204Z,11.98
2019-03-05T12:47:08.109Z,11.86
2019-03-05T12:49:40.778Z,11.74
2019-03-05T12:52:11.234Z,11.68
2019-03-05T12:54:43.408Z,11.77
2019-03-05T12:57:13.864Z,11.60
2019-03-05T12:59:44.185Z,11.51
2019-03-05T13:02:14.657Z,11.60
2019-03-05T13:04:45.794Z,11.57
2019-03-05T13:07:17.686Z,11.33
2019-03-05T13:09:48.417Z,11.52
2019-03-05T13:12:21.550Z,11.54
2019-03-05T13:14:52.072Z,11.49
2019-03-05T13:17:22.592Z,11.52
2019-03-05T13:19:54.634Z,11.39
2019-03-05T13:22:28.833Z,11.26
2019-03-05T13:24:57.438Z,11.33
2019-03-05T13:27:29.501Z,11.28
2019-03-05T13:29:59.919Z,11.32
2019-03-05T13:32:34.221Z,11.17
2019-03-05T13:35:08.570Z,11.26
2019-03-05T13:37:41.270Z,11.25
2019-03-05T13:40:30.107Z,11.32
2019-03-05T13:43:01.039Z,11.12
2019-03-05T13:45:31.700Z,10.97
2019-03-05T13:48:23.578Z,11.04
2019-03-05T13:51:04.189Z,10.98
2019-03-05T13:54:00.921Z,11.04
2019-03-05T13:56:37.867Z,11.01
2019-03-05T13:59:23.841Z,11.03
2019-03-05T14:01:57.426Z,11.06
2019-03-05T14:04:31.279Z,11.08
2019-03-05T14:07:07.767Z,11.09
2019-03-05T14:09:43.104Z,11.08
2019-03-05T14:12:17.221Z,11.02
2019-03-05T14:14:57.679Z,10.88
2019-03-05T14:17:29.163Z,10.82
2019-03-05T14:20:03.586Z,10.68
2019-03-05T14:22:47.316Z,10.62
2019-03-05T14:25:20.978Z,10.58
2019-03-05T14:27:54.587Z,10.59
2019-03-05T14:30:27.898Z,10.61
2019-03-05T14:33:01.252Z,10.68
2019-03-05T14:35:31.800Z,10.65
2019-03-05T14:38:07.052Z,10.57
2019-03-05T14:40:41.903Z,10.66
2019-03-05T14:43:21.642Z,10.64
2019-03-05T14:45:52.288Z,10.55
2019-03-05T14:48:24.725Z,10.49
2019-03-05T14:51:01.368Z,10.54
2019-03-05T14:53:44.555Z,10.45
2019-03-05T14:56:21.150Z,10.51
2019-03-05T14:59:02.791Z,10.50
2019-03-05T15:01:33.643Z,10.44
2019-03-05T15:04:06.653Z,10.49
2019-03-05T15:06:40.977Z,10.49
2019-03-05T15:09:16.881Z,10.38
2019-03-05T15:11:47.208Z,10.39
2019-03-05T15:14:20.558Z,10.35
2019-03-05T15:17:02.638Z,10.30
2019-03-05T15:19:51.083Z,10.39
2019-03-05T15:22:25.195Z,10.29
2019-03-05T15:25:00.724Z,10.31
2019-03-05T15:27:31.388Z,10.29
2019-03-05T15:30:03.430Z,10.34
2019-03-05T15:32:35.212Z,10.27
2019-03-05T15:35:08.325Z,10.21
2019-03-05T15:37:41.593Z,10.21
2019-03-05T15:40:17.540Z,10.12
2019-03-05T15:42:53.765Z,10.22
2019-03-05T15:45:29.639Z,10.15
2019-03-05T15:48:01.935Z,10.06
2019-03-05T15:57:26.017Z,10.04
2019-03-05T16:00:03.334Z,10.04
2019-03-05T16:02:50.730Z,10.06
2019-03-05T16:05:32.075Z,10.05
2019-03-05T16:08:02.776Z,10.06
2019-03-05T16:11:35.154Z,10.02
2019-03-05T16:16:33.071Z,10.01
2019-03-05T16:25:50.218Z,9.91
2019-03-05T16:28:39.211Z,9.88
2019-03-05T16:31:38.241Z,9.84
2019-03-05T16:35:11.928Z,9.80
2019-03-05T16:37:57.794Z,9.68
2019-03-05T16:40:46.227Z,9.56
2019-03-05T16:43:29.412Z,9.43
2019-03-05T16:46:25.836Z,9.30
2019-03-05T16:49:03.388Z,9.08
2019-03-05T16:51:38.323Z,8.90
2019-03-05T16:54:30.100Z,8.69
2019-03-05T16:57:04.496Z,8.51
2019-03-05T16:59:56.394Z,8.22
2019-03-05T17:02:38.293Z,8.00
2019-03-05T17:05:37.342Z,7.85
2019-03-05T17:08:10.856Z,7.75
2019-03-05T17:10:44.738Z,7.67
2019-03-05T17:13:19.590Z,7.55
2019-03-05T17:15:50.215Z,7.42
2019-03-05T17:18:26.313Z,7.29
2019-03-05T17:21:03.695Z,7.26
2019-03-05T17:27:35.993Z,7.06
2019-03-05T17:30:11.835Z,6.85
2019-03-05T17:32:48.389Z,6.87
2019-03-05T17:35:25.974Z,6.80
2019-03-05T17:38:02.635Z,6.81
2019-03-05T17:40:34.917Z,6.82
2019-03-05T17:43:07.519Z,6.79
2019-03-05T17:45:38.434Z,6.72
2019-03-05T17:51:00.189Z,6.66
2019-03-05T17:53:30.970Z,6.62
2019-03-05T17:59:17.775Z,6.52
2019-03-05T18:01:52.647Z,6.51
2019-03-05T18:04:29.234Z,6.61
2019-03-05T18:07:07.645Z,6.69
2019-03-05T18:09:54.992Z,6.70
2019-03-05T18:16:30.998Z,6.70
2019-03-05T18:19:00.721Z,6.65
2019-03-05T18:21:49.683Z,6.50
2019-03-05T18:24:21.720Z,6.44
2019-03-05T18:29:41.750Z,6.30
2019-03-05T18:32:13.707Z,6.30
2019-03-05T18:34:50.118Z,6.08
2019-03-05T18:37:28.392Z,5.94
2019-03-05T18:40:23.847Z,5.76
2019-03-05T18:42:59.036Z,5.77
2019-03-05T18:45:34.684Z,5.71
2019-03-05T18:48:10.819Z,5.57
2019-03-05T18:51:21.861Z,5.46
2019-03-05T18:54:10.819Z,5.44
2019-03-05T18:56:45.882Z,5.30
2019-03-05T18:59:19.560Z,5.34
2019-03-05T19:01:57.907Z,5.02
2019-03-05T19:04:31.743Z,5.10
2019-03-05T19:07:04.228Z,5.12
2019-03-05T19:09:38.990Z,5.04
2019-03-05T19:12:33.271Z,4.77
2019-03-05T19:15:17.418Z,4.97
2019-03-05T19:17:48.212Z,4.89
2019-03-05T19:20:27.232Z,4.71
2019-03-05T19:26:16.900Z,4.56
2019-03-05T19:28:50.305Z,4.66
2019-03-05T19:31:30.216Z,4.72
2019-03-05T19:34:04.622Z,4.85
2019-03-05T19:36:56.164Z,4.78
2019-03-05T19:43:06.697Z,4.86
2019-03-05T19:59:30.062Z,5.18
2019-03-05T20:02:20.712Z,5.24
2019-03-05T20:04:53.616Z,5.20
2019-03-05T20:07:24.063Z,5.22
2019-03-05T20:09:56.317Z,5.24
2019-03-05T20:12:28.352Z,5.24
2019-03-05T20:15:08.249Z,5.26
2019-03-05T20:25:02.945Z,5.15
2019-03-05T20:27:34.294Z,5.19
2019-03-05T20:30:24.230Z,5.16
2019-03-05T20:33:22.938Z,5.13
2019-03-05T20:37:40.857Z,5.16
2019-03-05T20:38:46.043Z,5.19
2019-03-05T20:41:18.214Z,5.17
2019-03-05T20:43:49.016Z,5.13
2019-03-05T20:46:23.951Z,5.06
2019-03-05T20:48:56.253Z,5.03
2019-03-05T20:51:36.615Z,4.97
2019-03-05T20:54:14.722Z,4.89
2019-03-05T21:20:44.942Z,4.13
2019-03-05T21:23:15.676Z,4.03
2019-03-05T21:25:47.594Z,4.00
2019-03-05T21:28:18.201Z,3.97
2019-03-05T21:30:52.840Z,3.93
2019-03-05T21:33:25.641Z,3.96
2019-03-05T21:36:01.129Z,4.01
2019-03-05T21:38:39.597Z,3.87
2019-03-05T21:41:10.706Z,4.08
2019-03-05T21:43:43.206Z,4.02
2019-03-05T21:46:16.648Z,3.90
2019-03-05T21:48:47.518Z,3.81
2019-03-05T21:51:47.724Z,3.90
2019-03-05T21:54:11.376Z,3.87
2019-03-05T21:56:43.029Z,3.87
2019-03-05T21:59:13.525Z,3.77
2019-03-05T22:01:44.603Z,3.82
2019-03-05T22:04:21.643Z,3.74
2019-03-05T22:07:10.714Z,3.74
2019-03-05T22:09:53.598Z,3.63
2019-03-05T22:12:24.048Z,3.59
2019-03-05T22:14:54.466Z,3.53
2019-03-05T22:17:25.284Z,3.23
2019-03-05T22:19:58.111Z,3.31
2019-03-05T22:22:30.328Z,3.48
2019-03-05T22:25:07.583Z,3.44
2019-03-05T22:27:42.122Z,3.48
2019-03-05T22:30:22.671Z,3.40
2019-03-05T22:32:53.241Z,3.40
2019-03-05T22:35:25.879Z,3.39
2019-03-05T22:38:00.915Z,3.34
2019-03-05T22:40:31.450Z,3.37
2019-03-05T22:43:01.994Z,3.28
2019-03-05T22:45:34.309Z,3.31
2019-03-05T22:48:04.883Z,3.34
2019-03-05T22:50:37.163Z,3.37
2019-03-05T22:55:56.636Z,3.38
2019-03-05T22:58:27.069Z,3.33
2019-03-05T23:01:03.702Z,3.35
2019-03-05T23:03:36.994Z,3.38
2019-03-05T23:06:13.864Z,3.36
2019-03-05T23:08:44.281Z,3.30
2019-03-05T23:11:14.690Z,3.33
2019-03-05T23:13:45.433Z,3.28
2019-03-05T23:16:15.939Z,3.20
2019-03-05T23:18:46.637Z,3.15
2019-03-05T23:21:17.153Z,3.04
2019-03-05T23:23:47.788Z,2.94
2019-03-05T23:26:18.227Z,3.04
2019-03-05T23:28:48.660Z,3.05
2019-03-05T23:31:19.159Z,3.01
2019-03-05T23:33:49.632Z,2.88
2019-03-05T23:36:20.390Z,2.94
2019-03-05T23:38:50.986Z,2.95
2019-03-05T23:41:21.461Z,2.93
2019-03-05T23:43:51.946Z,2.92
2019-03-05T23:46:22.366Z,2.89
2019-03-05T23:48:52.906Z,3.00
2019-03-05T23:51:23.625Z,3.09
2019-03-05T23:53:55.070Z,3.14
2019-03-05T23:56:25.613Z,3.19
2019-03-05T23:58:56.251Z,3.22
